Time;durP1;ratioP1;P1;durP2;ratioP2;P2;SDS_P1;SDS_P2;PMS_P1;PMS_P2;Temp;Humidity;BMP_temperature;BMP_pressure;BME280_temperature;BME280_humidity;BME280_pressure;Samples;Min_cycle;Max_cycle;Signal;HPM_P1;HPM_P2
2023/09/13 00:01:48;;;;;;;0.00;0.00;;;;;;;22.05;71.06;101392.69;5057619;28;20078;-77
2023/09/13 00:04:14;;;;;;;0.10;0.10;;;;;;;22.06;70.84;101394.44;5061092;28;20103;-76
2023/09/13 00:06:40;;;;;;;0.28;0.28;;;;;;;22.05;70.83;101395.41;5058147;28;20035;-76
2023/09/13 00:09:08;;;;;;;0.10;0.10;;;;;;;22.03;70.86;101394.63;5057986;28;20025;-76
2023/09/13 00:11:35;;;;;;;0.20;0.20;;;;;;;22.02;71.16;101390.16;5061466;28;20508;-75
2023/09/13 00:14:02;;;;;;;0.30;0.30;;;;;;;22.00;71.46;101392.13;5065261;28;20120;-77
2023/09/13 00:16:28;;;;;;;0.30;0.30;;;;;;;22.02;71.00;101391.06;5062652;28;20029;-74
2023/09/13 00:18:54;;;;;;;0.10;0.10;;;;;;;22.01;71.15;101389.31;5062842;28;20044;-74
2023/09/13 00:21:20;;;;;;;3.25;1.15;;;;;;;22.01;70.97;101393.81;5062546;28;20075;-76
2023/09/13 00:23:46;;;;;;;0.10;0.10;;;;;;;21.99;71.11;101391.22;5058420;28;20044;-77
2023/09/13 00:26:14;;;;;;;0.10;0.10;;;;;;;22.00;70.81;101386.72;5058395;28;20105;-77
2023/09/13 00:28:40;;;;;;;0.08;0.08;;;;;;;21.98;70.84;101384.97;5060149;28;20036;-75
2023/09/13 00:31:10;;;;;;;0.10;0.10;;;;;;;22.01;70.86;101383.03;5059381;28;20029;-76
2023/09/13 00:33:36;;;;;;;0.10;0.10;;;;;;;21.95;71.18;101390.53;5057891;28;20537;-74
2023/09/13 00:36:02;;;;;;;0.00;0.00;;;;;;;21.95;71.04;101390.53;5057669;28;20032;-76
2023/09/13 00:38:29;;;;;;;0.50;0.50;;;;;;;21.97;71.13;101388.63;5062420;28;20553;-76
2023/09/13 00:40:55;;;;;;;0.10;0.10;;;;;;;22.00;71.26;101392.97;5063424;28;20039;-77
2023/09/13 00:43:21;;;;;;;0.15;0.15;;;;;;;22.04;71.35;101393.66;5064457;28;20040;-76
2023/09/13 00:45:50;;;;;;;0.35;0.35;;;;;;;22.10;71.25;101385.19;5057969;28;20037;-77
2023/09/13 00:48:17;;;;;;;0.10;0.10;;;;;;;22.13;71.49;101387.69;5056404;28;20032;-74
2023/09/13 00:50:45;;;;;;;0.10;0.10;;;;;;;22.15;71.54;101380.38;5064810;28;20036;-77
2023/09/13 00:53:11;;;;;;;0.20;0.20;;;;;;;22.18;71.57;101384.72;5056502;28;20032;-75
2023/09/13 00:55:40;;;;;;;0.52;0.32;;;;;;;22.19;71.56;101392.72;5061281;28;20040;-77
2023/09/13 00:58:06;;;;;;;0.00;0.00;;;;;;;22.18;71.50;101380.22;5063253;28;20598;-77
2023/09/13 01:00:34;;;;;;;0.20;0.20;;;;;;;22.20;71.54;101380.97;5062025;28;20442;-76
2023/09/13 01:03:01;;;;;;;0.30;0.30;;;;;;;22.20;71.54;101380.97;5064334;28;20021;-76
2023/09/13 01:05:28;;;;;;;0.73;0.73;;;;;;;22.20;71.70;101380.97;5062099;28;20036;-76
2023/09/13 01:07:54;;;;;;;0.15;0.15;;;;;;;22.21;71.79;101388.13;5064564;28;20033;-77
2023/09/13 01:10:20;;;;;;;3.40;0.63;;;;;;;22.22;71.76;101395.25;5058628;28;20045;-76
2023/09/13 01:12:46;;;;;;;0.00;0.00;;;;;;;22.17;72.13;101391.97;5053889;28;20037;-77
2023/09/13 01:15:13;;;;;;;0.70;0.45;;;;;;;22.09;72.18;101387.03;5061193;28;20067;-75
2023/09/13 01:17:52;;;;;;;2.17;1.65;;;;;;;22.04;72.92;101377.47;5065853;28;20040;-77
2023/09/13 01:23:28;;;;;;;0.22;0.22;;;;;;;22.02;72.53;101387.47;5108100;27;20408;-78
2023/09/13 01:28:50;;;;;;;0.10;0.10;;;;;;;21.88;72.80;101383.78;5090501;27;20460;-77
2023/09/13 01:31:17;;;;;;;0.08;0.08;;;;;;;21.85;72.94;101383.97;5084221;28;20033;-78
2023/09/13 01:33:45;;;;;;;0.43;0.43;;;;;;;21.87;73.25;101389.25;5080433;28;20036;-77
2023/09/13 01:36:11;;;;;;;1.25;0.90;;;;;;;21.88;72.95;101382.91;5080024;28;20024;-77
2023/09/13 01:38:37;;;;;;;0.10;0.10;;;;;;;21.81;73.07;101383.25;5082604;28;20052;-77
2023/09/13 01:41:14;;;;;;;1.75;1.65;;;;;;;21.82;73.23;101370.66;5078269;28;20040;-76
2023/09/13 01:43:42;;;;;;;0.20;0.20;;;;;;;21.76;73.16;101374.59;5081036;28;20086;-77
2023/09/13 01:46:11;;;;;;;0.57;0.52;;;;;;;21.72;73.39;101366.75;5077695;28;20085;-77
2023/09/13 01:48:39;;;;;;;0.10;0.10;;;;;;;21.67;73.13;101364.34;5077169;28;20032;-77
2023/09/13 01:51:05;;;;;;;0.10;0.10;;;;;;;21.64;72.91;101359.97;5080218;28;20051;-78
2023/09/13 01:53:31;;;;;;;0.10;0.10;;;;;;;21.62;73.14;101359.22;5081684;28;20047;-77
2023/09/13 01:55:58;;;;;;;0.10;0.10;;;;;;;21.60;73.12;101360.28;5090000;28;20545;-76
2023/09/13 01:58:24;;;;;;;0.30;0.30;;;;;;;21.57;73.51;101365.81;5087603;28;20103;-77
2023/09/13 02:00:50;;;;;;;0.17;0.17;;;;;;;21.49;74.29;101374.31;5085464;28;20033;-77
2023/09/13 02:03:16;;;;;;;0.10;0.10;;;;;;;21.49;73.55;101377.03;5082416;28;20029;-77
2023/09/13 02:05:42;;;;;;;0.10;0.10;;;;;;;21.45;73.56;101376.31;5079391;28;20055;-77
2023/09/13 02:08:08;;;;;;;2.08;1.88;;;;;;;21.45;73.33;101386.25;5078215;28;20021;-78
2023/09/13 02:10:35;;;;;;;0.10;0.10;;;;;;;21.42;73.63;101391.81;5084234;28;20032;-77
2023/09/13 02:13:01;;;;;;;0.50;0.50;;;;;;;21.39;73.40;101386.59;5082207;28;20036;-77
2023/09/13 02:15:27;;;;;;;0.05;0.05;;;;;;;21.36;73.32;101381.38;5084951;28;20033;-78
2023/09/13 02:17:53;;;;;;;0.10;0.10;;;;;;;21.32;73.91;101389.66;5077641;28;20024;-77
2023/09/13 02:20:19;;;;;;;0.00;0.00;;;;;;;21.32;73.66;101388.75;5080300;28;20425;-77
2023/09/13 02:22:45;;;;;;;0.68;0.68;;;;;;;21.29;73.61;101387.13;5078000;28;20036;-77
2023/09/13 02:25:12;;;;;;;0.10;0.10;;;;;;;21.27;73.71;101397.13;5082114;28;20111;-77
2023/09/13 02:27:38;;;;;;;0.00;0.00;;;;;;;21.21;74.00;101393.88;5085254;28;20028;-76
2023/09/13 02:30:05;;;;;;;0.25;0.25;;;;;;;21.20;73.67;101403.81;5089530;28;20500;-77
2023/09/13 02:32:31;;;;;;;0.10;0.10;;;;;;;21.21;73.63;101404.66;5082577;28;20063;-77
2023/09/13 02:34:57;;;;;;;0.10;0.10;;;;;;;21.17;73.89;101414.75;5083594;28;20028;-77
2023/09/13 02:37:24;;;;;;;0.20;0.20;;;;;;;21.15;73.85;101413.97;5078906;28;20059;-77
2023/09/13 02:39:50;;;;;;;0.00;0.00;;;;;;;21.13;73.77;101411.38;5071541;28;20036;-77
2023/09/13 02:42:16;;;;;;;0.10;0.10;;;;;;;21.11;73.96;101413.28;5064291;28;20048;-77
2023/09/13 02:44:42;;;;;;;0.10;0.10;;;;;;;21.09;74.01;101423.25;5059021;28;20067;-77
2023/09/13 02:47:08;;;;;;;0.10;0.10;;;;;;;21.07;74.07;101418.91;5068768;28;20036;-77
2023/09/13 02:49:34;;;;;;;0.10;0.10;;;;;;;21.03;74.11;101417.34;5071882;28;20155;-78
2023/09/13 02:52:00;;;;;;;0.10;0.10;;;;;;;21.01;74.06;101414.75;5073266;28;20028;-78
2023/09/13 02:54:26;;;;;;;0.22;0.22;;;;;;;20.98;74.02;101410.38;5071110;28;20119;-77
2023/09/13 02:56:53;;;;;;;0.10;0.10;;;;;;;20.95;74.48;101412.41;5075548;28;20035;-77
2023/09/13 02:59:19;;;;;;;0.10;0.10;;;;;;;20.95;74.32;101413.25;5070812;28;20017;-78
2023/09/13 03:01:45;;;;;;;0.85;0.85;;;;;;;20.97;74.36;101418.53;5072909;28;20036;-78
2023/09/13 03:04:11;;;;;;;0.00;0.00;;;;;;;20.96;74.92;101419.50;5069035;28;20025;-79
2023/09/13 03:06:39;;;;;;;0.10;0.10;;;;;;;21.05;74.30;101410.94;5072294;28;20477;-78
2023/09/13 03:09:06;;;;;;;0.03;0.03;;;;;;;21.09;74.22;101415.19;5073588;28;20029;-79
2023/09/13 03:11:35;;;;;;;1.08;1.08;;;;;;;21.14;73.78;101405.00;5071231;28;20041;-79
2023/09/13 03:14:01;;;;;;;0.10;0.10;;;;;;;21.08;74.39;101409.88;5072058;28;20090;-78
2023/09/13 03:16:28;;;;;;;0.00;0.00;;;;;;;21.08;74.33;101404.50;5070087;28;20440;-78
2023/09/13 03:18:55;;;;;;;2.40;1.05;;;;;;;21.05;74.49;101404.66;5072584;28;20033;-79
2023/09/13 03:21:21;;;;;;;0.20;0.20;;;;;;;21.00;74.47;101408.47;5073544;28;20537;-77
2023/09/13 03:23:49;;;;;;;0.50;0.50;;;;;;;20.99;74.64;101409.44;5072984;28;20039;-77
2023/09/13 03:26:18;;;;;;;0.10;0.10;;;;;;;20.94;75.03;101408.81;5070802;28;20111;-77
2023/09/13 03:28:47;;;;;;;0.20;0.20;;;;;;;20.87;75.22;101407.41;5073731;28;20109;-78
2023/09/13 03:31:15;;;;;;;0.47;0.47;;;;;;;20.86;75.12;101405.69;5070962;28;22042;-77
2023/09/13 03:33:43;;;;;;;0.20;0.20;;;;;;;20.81;75.02;101414.00;5063392;28;21211;-78
2023/09/13 03:36:11;;;;;;;0.45;0.38;;;;;;;20.76;75.10;101413.41;5062936;28;20482;-78
2023/09/13 03:38:38;;;;;;;0.20;0.20;;;;;;;20.73;75.39;101416.22;5068316;28;20130;-79
2023/09/13 03:41:06;;;;;;;0.15;0.15;;;;;;;20.74;75.05;101423.38;5067350;28;20414;-78
2023/09/13 03:43:32;;;;;;;0.08;0.08;;;;;;;20.74;75.05;101422.50;5066893;28;20036;-78
2023/09/13 03:45:58;;;;;;;2.65;0.93;;;;;;;20.74;74.84;101423.38;5068024;28;20039;-78
2023/09/13 03:48:24;;;;;;;0.10;0.10;;;;;;;20.74;75.37;101422.50;5073517;28;20073;-79
2023/09/13 03:50:51;;;;;;;0.17;0.17;;;;;;;20.74;75.21;101417.97;5067912;28;20112;-78
2023/09/13 03:53:17;;;;;;;0.22;0.22;;;;;;;20.72;75.64;101429.78;5071502;28;20131;-78
2023/09/13 03:55:44;;;;;;;0.28;0.28;;;;;;;20.77;75.21;101420.53;5070491;28;20031;-78
2023/09/13 03:58:10;;;;;;;0.10;0.10;;;;;;;20.80;74.98;101427.56;5063430;28;20386;-77
2023/09/13 04:00:36;;;;;;;0.30;0.30;;;;;;;20.79;74.96;101421.28;5068715;28;20032;-77
2023/09/13 04:03:03;;;;;;;0.20;0.20;;;;;;;20.81;74.69;101423.88;5065962;28;20387;-78
2023/09/13 04:05:30;;;;;;;1.67;1.58;;;;;;;20.79;74.50;101426.69;5064558;28;20086;-78
2023/09/13 04:07:57;;;;;;;0.95;0.95;;;;;;;20.72;75.16;101427.09;5069601;28;20199;-78
2023/09/13 04:10:23;;;;;;;1.48;1.15;;;;;;;20.72;74.51;101424.41;5067072;28;20082;-74
2023/09/13 04:12:50;;;;;;;0.30;0.30;;;;;;;20.68;75.19;101419.13;5060583;28;20033;-74
2023/09/13 04:15:16;;;;;;;0.15;0.15;;;;;;;20.66;74.75;101415.66;5068069;28;20033;-78
2023/09/13 04:17:43;;;;;;;0.47;0.47;;;;;;;20.63;75.15;101421.19;5068457;28;20029;-77
2023/09/13 04:20:10;;;;;;;0.10;0.10;;;;;;;20.61;75.27;101423.13;5060823;28;20453;-75
2023/09/13 04:22:36;;;;;;;0.35;0.35;;;;;;;20.62;75.44;101418.59;5068562;28;20490;-77
2023/09/13 04:25:04;;;;;;;0.82;0.82;;;;;;;20.67;74.92;101424.59;5066769;28;20035;-78
2023/09/13 04:27:31;;;;;;;1.27;1.20;;;;;;;20.61;74.87;101423.13;5074570;28;20028;-78
2023/09/13 04:29:57;;;;;;;0.10;0.10;;;;;;;20.56;75.65;101419.81;5065816;28;20041;-78
2023/09/13 04:32:24;;;;;;;0.05;0.05;;;;;;;20.58;75.35;101428.66;5068910;28;20108;-78
2023/09/13 04:34:51;;;;;;;0.85;0.82;;;;;;;20.58;74.99;101431.34;5072034;28;20041;-78
2023/09/13 04:37:17;;;;;;;0.10;0.10;;;;;;;20.55;75.34;101431.53;5066805;28;20543;-79
2023/09/13 04:39:43;;;;;;;0.20;0.20;;;;;;;20.58;75.04;101420.59;5073967;28;20024;-78
2023/09/13 04:42:11;;;;;;;0.80;0.80;;;;;;;20.52;75.55;101421.78;5078161;28;20105;-78
2023/09/13 04:44:38;;;;;;;0.20;0.20;;;;;;;20.48;75.58;101424.72;5072077;28;20036;-79
2023/09/13 04:47:04;;;;;;;1.08;1.08;;;;;;;20.45;75.81;101427.56;5063172;28;20025;-77
2023/09/13 04:49:30;;;;;;;0.90;0.90;;;;;;;20.44;75.98;101436.59;5062576;28;20064;-74
2023/09/13 04:51:57;;;;;;;0.25;0.25;;;;;;;20.46;75.74;101440.06;5055657;28;20532;-75
2023/09/13 04:54:23;;;;;;;1.15;1.13;;;;;;;20.48;75.49;101435.47;5059347;28;20040;-75
2023/09/13 04:56:50;;;;;;;0.47;0.43;;;;;;;20.45;75.87;101435.63;5069358;28;20036;-77
2023/09/13 04:59:17;;;;;;;1.20;1.10;;;;;;;20.38;75.99;101432.41;5059713;28;20029;-76
2023/09/13 05:01:43;;;;;;;1.58;0.93;;;;;;;20.47;75.62;101431.94;5056347;28;20031;-77
2023/09/13 05:04:10;;;;;;;0.20;0.20;;;;;;;20.49;75.81;101450.69;5060694;28;20032;-78
2023/09/13 05:06:36;;;;;;;1.33;1.30;;;;;;;20.48;76.25;101454.31;5058717;28;20071;-77
2023/09/13 05:09:04;;;;;;;0.40;0.40;;;;;;;20.52;76.56;101458.59;5061287;28;20060;-77
2023/09/13 05:11:30;;;;;;;0.30;0.30;;;;;;;20.47;76.37;101466.03;5063768;28;20064;-78
2023/09/13 05:14:13;;;;;;;0.40;0.40;;;;;;;20.49;75.98;101473.09;5058334;28;20029;-78
2023/09/13 05:16:39;;;;;;;0.45;0.45;;;;;;;20.33;75.60;101473.00;5062907;28;20020;-77
2023/09/13 05:19:05;;;;;;;0.10;0.10;;;;;;;19.93;74.16;101480.38;5056922;28;20219;-77
2023/09/13 05:21:31;;;;;;;0.10;0.10;;;;;;;19.90;73.39;101485.03;5066795;28;20103;-77
2023/09/13 05:23:57;;;;;;;0.10;0.10;;;;;;;19.82;73.24;101501.53;5064062;28;20024;-77
2023/09/13 05:26:23;;;;;;;0.10;0.10;;;;;;;19.58;73.25;101493.69;5065253;28;20036;-78
2023/09/13 05:28:49;;;;;;;2.72;1.23;;;;;;;19.38;73.42;101510.75;5071797;28;20083;-78
2023/09/13 05:31:16;;;;;;;0.10;0.10;;;;;;;19.21;73.58;101516.91;5065421;28;20029;-77
2023/09/13 05:33:42;;;;;;;0.10;0.10;;;;;;;19.26;73.35;101527.44;5063092;28;20115;-77
2023/09/13 05:36:09;;;;;;;0.10;0.10;;;;;;;19.08;73.43;101528.19;5068367;28;20040;-78
2023/09/13 05:38:35;;;;;;;0.03;0.03;;;;;;;18.96;73.61;101530.56;5063520;28;20032;-80
2023/09/13 05:41:10;;;;;;;0.00;0.00;;;;;;;18.95;73.73;101537.75;5064838;28;20045;-77
2023/09/13 05:43:39;;;;;;;0.00;0.00;;;;;;;18.75;74.07;101542.16;5064747;28;20033;-76
2023/09/13 05:46:05;;;;;;;0.00;0.00;;;;;;;18.79;74.08;101544.69;5066025;28;20036;-78
2023/09/13 05:48:32;;;;;;;0.13;0.13;;;;;;;18.78;73.84;101551.88;5064634;28;20117;-77
2023/09/13 05:50:59;;;;;;;0.00;0.00;;;;;;;18.73;74.23;101556.59;5061723;28;20040;-78
2023/09/13 05:53:25;;;;;;;0.00;0.00;;;;;;;18.71;74.25;101558.47;5070240;28;20089;-78
2023/09/13 05:55:52;;;;;;;0.40;0.40;;;;;;;18.77;74.00;101568.94;5071438;28;20043;-78
2023/09/13 05:58:18;;;;;;;0.10;0.10;;;;;;;18.80;73.83;101568.78;5066172;28;20051;-77
2023/09/13 06:00:47;;;;;;;0.10;0.10;;;;;;;18.73;73.94;101568.19;5071851;28;20035;-78
2023/09/13 06:03:17;;;;;;;0.10;0.10;;;;;;;18.69;73.63;101576.44;5073594;28;20029;-77
2023/09/13 06:05:44;;;;;;;0.00;0.00;;;;;;;18.64;73.42;101582.00;5067871;28;20028;-77
2023/09/13 06:08:10;;;;;;;0.10;0.10;;;;;;;18.64;73.18;101584.69;5061544;28;20068;-78
2023/09/13 06:10:36;;;;;;;0.10;0.10;;;;;;;18.68;73.17;101582.72;5068785;28;20040;-78
2023/09/13 06:13:03;;;;;;;0.22;0.22;;;;;;;18.66;73.16;101598.03;5063072;28;20040;-78
2023/09/13 06:15:29;;;;;;;0.20;0.20;;;;;;;18.50;73.37;101619.28;5076238;28;20036;-77
2023/09/13 06:17:55;;;;;;;0.10;0.10;;;;;;;18.63;73.22;101628.56;5072872;28;20033;-77
2023/09/13 06:20:21;;;;;;;0.20;0.20;;;;;;;18.61;72.68;101613.47;5061451;28;20128;-76
2023/09/13 06:22:47;;;;;;;0.08;0.08;;;;;;;18.69;72.89;101625.63;5065032;28;20028;-76
2023/09/13 06:25:17;;;;;;;0.65;0.65;;;;;;;18.59;73.12;101630.50;5063851;28;20059;-76
2023/09/13 06:27:43;;;;;;;0.00;0.00;;;;;;;18.63;72.97;101636.63;5059505;28;20029;-77
2023/09/13 06:30:09;;;;;;;0.10;0.10;;;;;;;18.68;72.84;101649.81;5055357;28;20605;-77
2023/09/13 06:32:36;;;;;;;0.10;0.10;;;;;;;18.61;73.07;101643.84;5064290;28;20040;-76
2023/09/13 06:35:02;;;;;;;0.10;0.10;;;;;;;18.67;72.89;101654.34;5060717;28;20071;-77
2023/09/13 06:37:28;;;;;;;0.10;0.10;;;;;;;18.67;72.96;101648.97;5057960;28;20024;-77
2023/09/13 06:39:55;;;;;;;0.05;0.05;;;;;;;18.66;72.42;101657.09;5060738;28;20048;-77
2023/09/13 06:42:21;;;;;;;0.10;0.10;;;;;;;18.64;72.28;101659.84;5069919;28;20046;-77
2023/09/13 06:44:47;;;;;;;0.10;0.10;;;;;;;18.74;72.14;101666.56;5067065;28;21324;-76
2023/09/13 06:47:13;;;;;;;0.10;0.10;;;;;;;18.71;72.01;101672.06;5073477;28;20037;-77
2023/09/13 06:49:39;;;;;;;0.10;0.10;;;;;;;18.79;72.07;101677.13;5069049;28;20036;-77
2023/09/13 06:52:05;;;;;;;0.05;0.05;;;;;;;18.82;72.39;101684.19;5057123;28;20146;-78
2023/09/13 06:54:31;;;;;;;0.10;0.10;;;;;;;18.82;72.38;101684.19;5063032;28;20060;-77
2023/09/13 06:56:57;;;;;;;0.00;0.00;;;;;;;18.89;71.61;101693.72;5064686;28;20029;-77
2023/09/13 06:59:23;;;;;;;0.22;0.22;;;;;;;18.92;71.24;101696.31;5062463;28;20055;-77
2023/09/13 07:01:49;;;;;;;0.10;0.10;;;;;;;18.91;71.36;101695.41;5060947;28;20059;-77
2023/09/13 07:04:17;;;;;;;0.10;0.10;;;;;;;19.00;71.77;101701.34;5063682;28;20107;-78
2023/09/13 07:06:43;;;;;;;0.10;0.10;;;;;;;19.04;71.11;101695.81;5063373;28;20025;-77
2023/09/13 07:09:09;;;;;;;0.03;0.03;;;;;;;19.12;70.73;101699.97;5064350;28;20390;-77
2023/09/13 07:11:36;;;;;;;0.10;0.10;;;;;;;19.05;69.93;101702.03;5073073;28;20405;-78
2023/09/13 07:14:02;;;;;;;0.10;0.10;;;;;;;19.22;69.84;101720.13;5061676;28;20033;-78
2023/09/13 07:16:28;;;;;;;0.10;0.10;;;;;;;19.19;69.04;101720.25;5073688;28;20071;-77
2023/09/13 07:18:55;;;;;;;0.10;0.10;;;;;;;19.18;68.05;101726.59;5060453;28;20052;-77
2023/09/13 07:21:21;;;;;;;0.10;0.10;;;;;;;19.15;68.36;101729.38;5068658;28;20029;-78
2023/09/13 07:23:47;;;;;;;0.10;0.10;;;;;;;19.19;68.58;101731.88;5066690;28;20036;-77
2023/09/13 07:26:14;;;;;;;0.10;0.10;;;;;;;19.11;67.88;101739.38;5063687;28;20082;-78
2023/09/13 07:28:40;;;;;;;0.10;0.10;;;;;;;19.06;68.30;101747.63;5061375;28;20025;-77
2023/09/13 07:31:07;;;;;;;0.20;0.20;;;;;;;18.96;68.09;101745.41;5061465;28;20037;-77
2023/09/13 07:33:33;;;;;;;0.30;0.30;;;;;;;18.96;67.42;101745.41;5058725;28;20059;-77
2023/09/13 07:35:59;;;;;;;0.10;0.10;;;;;;;19.02;68.37;101737.09;5059631;28;20490;-77
2023/09/13 07:38:26;;;;;;;0.10;0.10;;;;;;;19.17;67.87;101749.00;5061510;28;20398;-76
2023/09/13 07:40:52;;;;;;;0.10;0.10;;;;;;;19.29;68.00;101748.50;5061651;28;20036;-78
2023/09/13 07:43:18;;;;;;;0.10;0.10;;;;;;;19.33;68.08;101744.72;5052524;28;20133;-77
2023/09/13 07:45:45;;;;;;;0.70;0.70;;;;;;;19.56;67.71;101753.63;5063051;28;20042;-77
2023/09/13 07:48:12;;;;;;;0.10;0.10;;;;;;;19.63;67.12;101747.03;5067702;28;20074;-77
2023/09/13 07:50:40;;;;;;;0.03;0.03;;;;;;;19.66;67.25;101754.94;5052696;28;20044;-77
2023/09/13 07:53:07;;;;;;;0.30;0.30;;;;;;;19.86;67.20;101758.63;5060480;28;20028;-77
2023/09/13 07:55:34;;;;;;;0.00;0.00;;;;;;;19.94;67.55;101753.78;5053542;28;20036;-77
2023/09/13 07:58:00;;;;;;;0.10;0.10;;;;;;;19.95;67.28;101758.22;5062787;28;20121;-76
2023/09/13 08:00:27;;;;;;;0.10;0.10;;;;;;;20.11;66.55;101757.50;5060528;28;20037;-77
2023/09/13 08:02:53;;;;;;;1.00;1.00;;;;;;;20.17;65.92;101759.94;5062231;28;20418;-77
2023/09/13 08:05:19;;;;;;;0.00;0.00;;;;;;;20.25;66.06;101781.97;5056219;28;20078;-78
2023/09/13 08:07:46;;;;;;;0.10;0.10;;;;;;;20.39;66.86;101791.22;5065422;28;20070;-76
2023/09/13 08:10:13;;;;;;;0.10;0.10;;;;;;;20.51;65.40;101805.00;5055492;28;20028;-77
2023/09/13 08:12:40;;;;;;;0.03;0.03;;;;;;;20.48;66.14;101805.13;5061919;28;20047;-78
2023/09/13 08:15:07;;;;;;;0.00;0.00;;;;;;;20.63;65.62;101808.06;5055937;28;20051;-77
2023/09/13 08:17:33;;;;;;;0.03;0.03;;;;;;;20.60;65.04;101803.69;5062042;28;20033;-77
2023/09/13 08:20:01;;;;;;;0.10;0.10;;;;;;;20.67;63.02;101809.66;5064111;28;20387;-77
2023/09/13 08:22:27;;;;;;;0.10;0.10;;;;;;;20.75;64.40;101817.38;5062091;28;20548;-76
2023/09/13 08:24:54;;;;;;;0.10;0.10;;;;;;;20.78;62.63;101825.34;5061506;28;20033;-77
2023/09/13 08:27:20;;;;;;;0.10;0.10;;;;;;;20.77;62.16;101826.28;5065200;28;20560;-78
2023/09/13 08:29:46;;;;;;;0.10;0.10;;;;;;;20.83;62.00;101836.75;5065922;28;20033;-79
2023/09/13 08:32:12;;;;;;;0.20;0.20;;;;;;;20.93;61.20;101838.06;5065038;28;20106;-79
2023/09/13 08:34:38;;;;;;;0.10;0.10;;;;;;;21.03;61.86;101843.03;5066079;28;20033;-76
2023/09/13 08:37:04;;;;;;;0.00;0.00;;;;;;;21.13;62.44;101855.09;5068388;28;20064;-78
2023/09/13 08:39:31;;;;;;;0.10;0.10;;;;;;;21.21;62.00;101855.59;5070682;28;20056;-78
2023/09/13 08:41:58;;;;;;;0.10;0.10;;;;;;;21.25;60.29;101854.50;5065935;28;20067;-78
2023/09/13 08:44:26;;;;;;;0.10;0.10;;;;;;;21.38;61.96;101848.50;5070981;28;20079;-75
2023/09/13 08:46:57;;;;;;;0.00;0.00;;;;;;;21.52;60.90;101862.19;5074759;28;20059;-77
2023/09/13 08:49:24;;;;;;;0.57;0.57;;;;;;;21.52;60.89;101867.56;5068982;28;20040;-78
2023/09/13 08:51:52;;;;;;;0.00;0.00;;;;;;;21.61;59.71;101869.81;5075363;28;20039;-77
2023/09/13 08:54:19;;;;;;;0.08;0.08;;;;;;;21.71;59.79;101880.13;5072211;28;20037;-78
2023/09/13 08:56:46;;;;;;;0.00;0.00;;;;;;;21.59;56.64;101889.72;5072986;28;20513;-78
2023/09/13 08:59:13;;;;;;;0.80;0.43;;;;;;;21.67;57.78;101886.66;5072635;28;20114;-78
2023/09/13 09:01:43;;;;;;;0.10;0.10;;;;;;;21.78;60.77;101895.06;5073427;28;20576;-79
2023/09/13 09:04:11;;;;;;;0.10;0.10;;;;;;;21.82;59.06;101902.06;5073969;28;20037;-79
2023/09/13 09:06:37;;;;;;;0.10;0.10;;;;;;;21.91;60.07;101906.97;5073523;28;20028;-78
2023/09/13 09:09:04;;;;;;;0.00;0.00;;;;;;;21.96;59.73;101909.47;5077445;28;20086;-79
2023/09/13 09:11:32;;;;;;;0.03;0.03;;;;;;;21.93;58.82;101918.59;5077731;28;20037;-79
2023/09/13 09:14:01;;;;;;;0.00;0.00;;;;;;;22.02;59.29;101921.75;5075139;28;20032;-78
2023/09/13 09:16:32;;;;;;;0.03;0.03;;;;;;;22.17;60.46;101929.06;5066862;28;20032;-78
2023/09/13 09:19:00;;;;;;;0.38;0.38;;;;;;;22.20;57.48;101923.50;5072664;28;20054;-79
2023/09/13 09:21:26;;;;;;;0.00;0.00;;;;;;;22.32;58.26;101926.50;5073829;28;20025;-79
2023/09/13 09:23:53;;;;;;;0.10;0.10;;;;;;;22.53;59.46;101920.03;5078535;28;20114;-78
2023/09/13 09:26:20;;;;;;;0.00;0.00;;;;;;;22.71;58.97;101917.28;5072815;28;20035;-78
2023/09/13 09:28:47;;;;;;;0.10;0.10;;;;;;;22.87;58.03;101914.63;5070445;28;20081;-79
2023/09/13 09:31:13;;;;;;;0.00;0.00;;;;;;;22.83;55.46;101911.22;5072743;28;20039;-78
2023/09/13 09:33:42;;;;;;;0.10;0.10;;;;;;;23.04;57.13;101911.84;5068724;28;20112;-79
2023/09/13 09:36:11;;;;;;;0.40;0.40;;;;;;;23.11;56.55;101915.06;5072607;28;20028;-78
2023/09/13 09:38:37;;;;;;;0.05;0.05;;;;;;;23.00;55.18;101933.72;5068617;28;20043;-78
2023/09/13 09:41:06;;;;;;;0.10;0.10;;;;;;;22.81;55.73;101929.31;5069813;28;20118;-78
2023/09/13 09:43:33;;;;;;;0.10;0.10;;;;;;;22.59;56.43;101930.50;5073057;28;20112;-81
2023/09/13 09:45:59;;;;;;;0.10;0.10;;;;;;;22.36;56.98;101944.31;5061380;28;20564;-80
2023/09/13 09:48:27;;;;;;;0.10;0.10;;;;;;;22.17;56.85;101945.25;5059036;28;20029;-80
2023/09/13 09:50:54;;;;;;;0.10;0.10;;;;;;;22.05;57.09;101951.28;5070421;28;20048;-81
2023/09/13 09:53:22;;;;;;;0.15;0.15;;;;;;;21.96;57.43;101956.19;5070399;28;20029;-80
2023/09/13 09:55:49;;;;;;;0.10;0.10;;;;;;;21.86;58.78;101957.63;5075162;28;20052;-78
2023/09/13 09:58:17;;;;;;;0.52;0.52;;;;;;;21.69;58.93;101954.88;5065120;28;20028;-78
2023/09/13 10:00:49;;;;;;;0.10;0.10;;;;;;;21.53;58.17;101944.78;5071310;28;21444;-78
2023/09/13 10:03:18;;;;;;;0.15;0.15;;;;;;;21.42;59.25;101949.84;5060597;28;20029;-78
2023/09/13 10:08:48;;;;;;;1.08;0.90;;;;;;;21.68;59.28;101963.91;5095490;27;20413;-83
2023/09/13 10:11:21;;;;;;;0.00;0.00;;;;;;;21.85;59.23;101966.66;5088037;28;20032;-78
2023/09/13 10:13:48;;;;;;;0.20;0.20;;;;;;;22.02;58.36;101979.31;5089738;28;20065;-80
2023/09/13 10:16:16;;;;;;;0.10;0.10;;;;;;;22.26;58.19;101971.78;5084134;28;20127;-79
2023/09/13 10:21:25;;;;;;;0.10;0.10;;;;;;;22.75;57.31;101978.28;5060450;27;1935845;-82
2023/09/13 10:24:04;;;;;;;0.00;0.00;;;;;;;23.05;57.77;101972.16;5100459;28;20082;-81
2023/09/13 10:26:31;;;;;;;0.10;0.10;;;;;;;23.16;57.36;101975.19;5103530;28;20039;-82
2023/09/13 10:29:07;;;;;;;0.00;0.00;;;;;;;23.22;56.76;101972.13;5105548;28;20028;-83
2023/09/13 10:31:39;;;;;;;0.20;0.20;;;;;;;23.14;56.84;101987.91;5103875;28;20028;-83
2023/09/13 10:34:14;;;;;;;0.10;0.10;;;;;;;23.06;57.60;101982.03;5104356;28;20085;-82
2023/09/13 10:36:47;;;;;;;0.10;0.10;;;;;;;23.08;57.55;101982.81;5101788;28;20191;-81
2023/09/13 10:39:26;;;;;;;0.10;0.10;;;;;;;23.19;57.62;101993.06;5104969;28;20034;-80
2023/09/13 10:42:04;;;;;;;0.00;0.00;;;;;;;23.32;57.38;101994.13;5100772;28;20056;-83
2023/09/13 10:44:31;;;;;;;0.10;0.10;;;;;;;23.31;55.49;101996.94;5108473;28;20420;-83
2023/09/13 10:46:57;;;;;;;0.22;0.22;;;;;;;23.36;56.34;101995.69;5105465;28;20051;-83
2023/09/13 10:49:25;;;;;;;0.10;0.10;;;;;;;23.42;56.30;101998.06;5109653;28;20523;-82
2023/09/13 10:51:53;;;;;;;0.10;0.10;;;;;;;23.46;56.13;102017.69;5101538;28;20056;-82
2023/09/13 10:54:20;;;;;;;0.10;0.10;;;;;;;23.23;55.07;102016.28;5110871;28;20061;-82
2023/09/13 10:56:49;;;;;;;0.10;0.10;;;;;;;23.11;55.80;102039.41;5104204;28;20028;-83
2023/09/13 10:59:18;;;;;;;0.10;0.10;;;;;;;22.74;54.97;102035.97;5107786;28;20111;-79
2023/09/13 11:01:46;;;;;;;0.05;0.05;;;;;;;22.44;54.30;102044.72;5107133;28;20032;-76
2023/09/13 11:04:14;;;;;;;0.10;0.10;;;;;;;22.08;54.36;102050.97;5106272;28;20120;-76
2023/09/13 11:06:42;;;;;;;0.10;0.10;;;;;;;21.88;55.76;102044.75;5103164;28;20500;-76
2023/09/13 11:09:15;;;;;;;0.10;0.10;;;;;;;21.71;55.58;102055.47;5106931;28;20032;-77
2023/09/13 11:11:47;;;;;;;0.68;0.68;;;;;;;21.53;56.22;102063.44;5102137;28;20034;-78
2023/09/13 11:14:17;;;;;;;0.10;0.10;;;;;;;21.34;55.29;102058.91;5100427;28;20081;-77
2023/09/13 11:16:46;;;;;;;0.08;0.08;;;;;;;21.34;56.02;102064.28;5110741;28;21633;-77
2023/09/13 11:19:14;;;;;;;0.68;0.40;;;;;;;21.29;56.53;102069.03;5103084;28;20089;-77
2023/09/13 11:22:02;;;;;;;0.10;0.10;;;;;;;21.38;57.06;102070.41;5108066;28;20028;-78
2023/09/13 11:27:17;;;;;;;0.10;0.10;;;;;;;21.39;57.47;102068.63;5089955;27;20389;-77
2023/09/13 11:29:52;;;;;;;0.05;0.05;;;;;;;21.48;57.22;102084.34;5089280;28;20036;-77
2023/09/13 11:32:20;;;;;;;0.10;0.10;;;;;;;21.53;57.10;102074.22;5086073;28;20556;-77
2023/09/13 11:34:55;;;;;;;0.10;0.10;;;;;;;21.88;57.53;102076.25;5087270;28;20486;-77
2023/09/13 11:37:22;;;;;;;0.00;0.00;;;;;;;22.18;57.09;102075.69;5082443;28;20024;-77
2023/09/13 11:40:06;;;;;;;0.10;0.10;;;;;;;22.57;56.75;102080.94;5084571;28;20492;-77